Cameron, Ohio
Current Conditions -  °F | °C
As of 11:53 AM on Sunday 23 Nov 2014 (Local Time) from KHLG Reporting Station
Clear Clear  
Wind Chill: 63°   Ceiling: Unl
Heat Index: 63°   Visibility: 10mi
Dew Point: 40°   Wind: 10mph
Humidity: 43%   Direction: 180°S
Pressure: 29.99"   Gusts: NA
Location:  39.77°N, 80.94°W
Report Text: KHLG 231653Z 18009KT 10SM CLR 17/04 A2999 RMK AO2 SLP157 T01720044
Loading
Personal Weather Stations






























Interactive Weather Map New forecast layout! Learn more

10-Day Weather Forecast

Advertisements
Track Severe Weather on mobile